createdAt,value
2015-07-31T00:00:01.499Z,16.7
2015-07-31T00:00:20.202Z,16.7
2015-07-31T00:00:38.905Z,16.6
2015-07-31T00:00:57.470Z,16.5
2015-07-31T00:01:15.954Z,16.5
2015-07-31T00:01:34.376Z,16.5
2015-07-31T00:01:52.847Z,16.5
2015-07-31T00:02:11.347Z,16.4
2015-07-31T00:02:29.753Z,16.4
2015-07-31T00:02:48.128Z,16.4
2015-07-31T00:03:06.552Z,16.3
2015-07-31T00:03:24.942Z,16.3
2015-07-31T00:03:43.458Z,16.3
2015-07-31T00:04:02.163Z,16.3
2015-07-31T00:04:20.804Z,16.3
2015-07-31T00:04:39.194Z,16.2
2015-07-31T00:04:57.679Z,16.2
2015-07-31T00:05:16.071Z,16.2
2015-07-31T00:05:34.696Z,16.1
2015-07-31T00:05:53.290Z,16.1
2015-07-31T00:06:11.667Z,16.1
2015-07-31T00:06:30.230Z,16.1
2015-07-31T00:06:48.667Z,16.1
2015-07-31T00:07:07.308Z,16.1
2015-07-31T00:07:26.091Z,16.1
2015-07-31T00:07:43.997Z,16.2
2015-07-31T00:08:02.544Z,16.1
2015-07-31T00:08:21.203Z,16.1
2015-07-31T00:08:39.750Z,16.1
2015-07-31T00:08:58.578Z,16.1
2015-07-31T00:09:17.172Z,16.1
2015-07-31T00:09:35.783Z,16.1
2015-07-31T00:09:54.361Z,16.1
2015-07-31T00:10:12.939Z,16.1
2015-07-31T00:10:31.472Z,16
2015-07-31T00:10:50.285Z,16
2015-07-31T00:11:08.769Z,16
2015-07-31T00:11:27.456Z,16
2015-07-31T00:11:46.038Z,16
2015-07-31T00:12:04.538Z,16
2015-07-31T00:12:22.991Z,16
2015-07-31T00:12:41.648Z,15.9
2015-07-31T00:13:00.148Z,15.8
2015-07-31T00:13:18.757Z,15.9
2015-07-31T00:13:37.273Z,15.9
2015-07-31T00:13:55.806Z,15.9
2015-07-31T00:14:14.478Z,15.9
2015-07-31T00:14:32.978Z,15.9
2015-07-31T00:14:51.544Z,15.9
2015-07-31T00:15:10.481Z,15.8
2015-07-31T00:15:29.122Z,15.8
2015-07-31T00:15:47.856Z,15.7
2015-07-31T00:16:06.592Z,15.7
2015-07-31T00:16:25.171Z,15.8
2015-07-31T00:16:43.889Z,15.8
2015-07-31T00:17:02.391Z,15.8
2015-07-31T00:17:21.126Z,15.7
2015-07-31T00:17:39.501Z,15.7
2015-07-31T00:17:57.923Z,15.7
2015-07-31T00:18:16.331Z,15.6
2015-07-31T00:18:34.862Z,15.6
2015-07-31T00:18:53.331Z,15.6
2015-07-31T00:19:11.723Z,15.6
2015-07-31T00:19:30.317Z,15.6
2015-07-31T00:19:48.942Z,15.6
2015-07-31T00:20:07.458Z,15.5
2015-07-31T00:20:26.225Z,15.5
2015-07-31T00:20:44.757Z,15.5
2015-07-31T00:21:03.335Z,15.6
2015-07-31T00:21:21.963Z,15.5
2015-07-31T00:21:40.728Z,15.5
2015-07-31T00:21:59.103Z,15.5
2015-07-31T00:22:17.510Z,15.5
2015-07-31T00:22:35.979Z,15.5
2015-07-31T00:22:54.683Z,15.5
2015-07-31T00:23:13.089Z,15.6
2015-07-31T00:23:31.764Z,15.5
2015-07-31T00:23:50.529Z,15.6
2015-07-31T00:24:09.311Z,15.6
2015-07-31T00:24:27.686Z,15.5
2015-07-31T00:24:46.327Z,15.5
2015-07-31T00:25:04.921Z,15.6
2015-07-31T00:25:23.733Z,15.5
2015-07-31T00:25:42.189Z,15.5
2015-07-31T00:26:00.892Z,15.5
2015-07-31T00:26:19.454Z,15.5
2015-07-31T00:26:38.145Z,15.5
2015-07-31T00:26:56.770Z,15.6
2015-07-31T00:27:15.332Z,15.6
2015-07-31T00:27:34.004Z,15.6
2015-07-31T00:27:52.662Z,15.6
2015-07-31T00:28:11.147Z,15.6
2015-07-31T00:28:29.772Z,15.6
2015-07-31T00:28:48.336Z,15.6
2015-07-31T00:29:06.977Z,15.6
2015-07-31T00:29:25.367Z,15.5
2015-07-31T00:29:43.946Z,15.6
2015-07-31T00:30:02.323Z,15.7
2015-07-31T00:30:21.104Z,15.7
2015-07-31T00:30:39.651Z,15.6
2015-07-31T00:30:58.043Z,15.6
2015-07-31T00:31:16.559Z,15.6
2015-07-31T00:31:35.137Z,15.6
2015-07-31T00:31:53.668Z,15.5
2015-07-31T00:32:12.170Z,15.6
2015-07-31T00:32:30.686Z,15.5
2015-07-31T00:32:49.217Z,15.6
2015-07-31T00:33:07.672Z,15.6
2015-07-31T00:33:26.235Z,15.6
2015-07-31T00:33:44.735Z,15.6
2015-07-31T00:34:03.188Z,15.6
2015-07-31T00:34:21.643Z,15.6
2015-07-31T00:34:40.096Z,15.6
2015-07-31T00:34:58.565Z,15.6
2015-07-31T00:35:17.145Z,15.7
2015-07-31T00:35:35.708Z,15.7
2015-07-31T00:35:54.364Z,15.6
2015-07-31T00:36:13.317Z,15.6
2015-07-31T00:36:32.038Z,15.6
2015-07-31T00:36:50.694Z,15.6
2015-07-31T00:37:09.131Z,15.6
2015-07-31T00:37:27.774Z,15.7
2015-07-31T00:37:46.337Z,15.6
2015-07-31T00:38:04.727Z,15.7
2015-07-31T00:38:23.149Z,15.8
2015-07-31T00:38:41.870Z,15.7
2015-07-31T00:39:00.323Z,15.7
2015-07-31T00:39:18.964Z,15.8
2015-07-31T00:39:37.606Z,15.8
2015-07-31T00:39:56.262Z,15.8
2015-07-31T00:40:15.012Z,15.7
2015-07-31T00:40:33.809Z,15.7
2015-07-31T00:40:52.233Z,15.7
2015-07-31T00:41:10.655Z,15.7
2015-07-31T00:41:29.108Z,15.8
2015-07-31T00:41:47.486Z,15.8
2015-07-31T00:42:05.986Z,15.9
2015-07-31T00:42:24.471Z,15.9
2015-07-31T00:42:42.908Z,15.9
2015-07-31T00:43:01.410Z,15.8
2015-07-31T00:43:19.941Z,15.8
2015-07-31T00:43:38.223Z,15.8
2015-07-31T00:43:56.615Z,15.8
2015-07-31T00:44:15.006Z,15.8
2015-07-31T00:44:33.396Z,15.8
2015-07-31T00:44:51.787Z,15.8
2015-07-31T00:45:10.273Z,15.8
2015-07-31T00:45:28.789Z,15.8
2015-07-31T00:45:47.164Z,15.7
2015-07-31T00:46:05.541Z,15.7
2015-07-31T00:46:24.010Z,15.6
2015-07-31T00:46:42.463Z,15.6
2015-07-31T00:47:00.854Z,15.6
2015-07-31T00:47:19.465Z,15.6
2015-07-31T00:47:37.887Z,15.6
2015-07-31T00:47:56.574Z,15.6
2015-07-31T00:48:14.967Z,15.6
2015-07-31T00:48:33.670Z,15.5
2015-07-31T00:48:52.045Z,15.6
2015-07-31T00:49:10.608Z,15.6
2015-07-31T00:49:29.063Z,15.5
2015-07-31T00:49:47.750Z,15.5
2015-07-31T00:50:06.313Z,15.5
2015-07-31T00:50:24.705Z,15.5
2015-07-31T00:50:43.237Z,15.5
2015-07-31T00:51:01.799Z,15.5
2015-07-31T00:51:20.237Z,15.5
2015-07-31T00:51:39.067Z,15.4
2015-07-31T00:51:57.551Z,15.4
2015-07-31T00:52:15.926Z,15.5
2015-07-31T00:52:34.381Z,15.4
2015-07-31T00:52:52.756Z,15.4
2015-07-31T00:53:11.178Z,15.3
2015-07-31T00:53:29.100Z,15.3
2015-07-31T00:53:47.571Z,15.3
2015-07-31T00:54:06.039Z,15.3
2015-07-31T00:54:24.649Z,15.3
2015-07-31T00:54:43.229Z,15.3
2015-07-31T00:55:01.026Z,15.3
2015-07-31T00:55:19.495Z,15.2
2015-07-31T00:55:38.245Z,15.2
2015-07-31T00:55:56.622Z,15.2
2015-07-31T00:56:15.106Z,15.1
2015-07-31T00:56:33.872Z,15.2
2015-07-31T00:56:52.734Z,15.2
2015-07-31T00:57:11.687Z,15.2
2015-07-31T00:57:30.109Z,15.2
2015-07-31T00:57:48.562Z,15.1
2015-07-31T00:58:07.017Z,15.1
2015-07-31T00:58:25.580Z,15.1
2015-07-31T00:58:44.158Z,15.1
2015-07-31T00:59:02.675Z,15.1
2015-07-31T00:59:21.066Z,15.1
2015-07-31T00:59:39.363Z,15.1
2015-07-31T00:59:57.738Z,15.1
2015-07-31T01:00:16.271Z,15.1
2015-07-31T01:00:34.740Z,15.1
2015-07-31T01:00:53.287Z,15
2015-07-31T01:01:11.788Z,15
2015-07-31T01:01:30.460Z,15
2015-07-31T01:01:49.288Z,15
2015-07-31T01:02:07.928Z,14.9
2015-07-31T01:02:26.322Z,14.9
2015-07-31T01:02:44.791Z,14.9
2015-07-31T01:03:03.572Z,14.9
2015-07-31T01:03:21.966Z,14.9
2015-07-31T01:03:40.841Z,14.9
2015-07-31T01:03:59.419Z,14.9
2015-07-31T01:04:18.091Z,14.9
2015-07-31T01:04:36.545Z,14.9
2015-07-31T01:04:55.123Z,14.9
2015-07-31T01:05:13.498Z,14.9
2015-07-31T01:05:31.875Z,14.9
2015-07-31T01:05:50.281Z,15
2015-07-31T01:06:08.906Z,15
2015-07-31T01:06:27.547Z,15.1
2015-07-31T01:06:45.986Z,15.1
2015-07-31T01:07:04.533Z,15.1
2015-07-31T01:07:22.939Z,15.2
2015-07-31T01:07:41.457Z,15.2
2015-07-31T01:08:00.098Z,15.1
2015-07-31T01:08:18.676Z,15.1
2015-07-31T01:08:37.113Z,15.1
2015-07-31T01:08:55.835Z,15.1
2015-07-31T01:09:14.585Z,15.1
2015-07-31T01:09:32.351Z,15
2015-07-31T01:09:51.195Z,15
2015-07-31T01:10:10.399Z,15
2015-07-31T01:10:29.024Z,15.1
2015-07-31T01:10:47.649Z,15.1
2015-07-31T01:11:06.135Z,15.1
2015-07-31T01:11:24.619Z,15.1
2015-07-31T01:11:43.182Z,15.1
2015-07-31T01:12:01.779Z,15.1
2015-07-31T01:12:20.450Z,15.1
2015-07-31T01:12:38.857Z,15.2
2015-07-31T01:12:57.279Z,15.2
2015-07-31T01:13:15.734Z,15.1
2015-07-31T01:13:34.359Z,15.1
2015-07-31T01:13:52.749Z,15
2015-07-31T01:14:11.283Z,15
2015-07-31T01:14:29.845Z,15
2015-07-31T01:14:48.658Z,15
2015-07-31T01:15:07.095Z,15
2015-07-31T01:15:25.660Z,15
2015-07-31T01:15:44.253Z,15
2015-07-31T01:16:02.988Z,15
2015-07-31T01:16:21.740Z,15
2015-07-31T01:16:40.271Z,15
2015-07-31T01:16:59.083Z,14.9
2015-07-31T01:17:17.476Z,14.8
2015-07-31T01:17:36.179Z,14.8
2015-07-31T01:17:54.648Z,14.7
2015-07-31T01:18:13.164Z,14.7
2015-07-31T01:18:31.775Z,14.8
2015-07-31T01:18:50.603Z,14.8
2015-07-31T01:19:08.978Z,14.7
2015-07-31T01:19:27.464Z,14.7
2015-07-31T01:19:45.996Z,14.7
2015-07-31T01:20:04.418Z,14.7
2015-07-31T01:20:23.214Z,14.6
2015-07-31T01:20:41.701Z,14.5
2015-07-31T01:21:00.201Z,14.6
2015-07-31T01:21:18.685Z,14.6
2015-07-31T01:21:37.515Z,14.6
2015-07-31T01:21:56.250Z,14.6
2015-07-31T01:22:14.781Z,14.7
2015-07-31T01:22:33.203Z,14.7
2015-07-31T01:22:52.174Z,14.7
2015-07-31T01:23:10.861Z,14.7
2015-07-31T01:23:29.377Z,14.7
2015-07-31T01:23:47.941Z,14.7
2015-07-31T01:24:06.644Z,14.7
2015-07-31T01:24:25.160Z,14.7
2015-07-31T01:24:43.553Z,14.6
2015-07-31T01:25:02.256Z,14.6
2015-07-31T01:25:20.834Z,14.6
2015-07-31T01:25:39.490Z,14.6
2015-07-31T01:25:58.055Z,14.6
2015-07-31T01:26:16.555Z,14.5
2015-07-31T01:26:35.055Z,14.5
2015-07-31T01:26:53.494Z,14.4
2015-07-31T01:27:11.885Z,14.5
2015-07-31T01:27:30.322Z,14.4
2015-07-31T01:27:48.775Z,14.4
2015-07-31T01:28:07.184Z,14.5
2015-07-31T01:28:25.996Z,14.5
2015-07-31T01:28:44.715Z,14.5
2015-07-31T01:29:03.187Z,14.5
2015-07-31T01:29:21.624Z,14.5
2015-07-31T01:29:40.265Z,14.5
2015-07-31T01:29:58.780Z,14.5
2015-07-31T01:30:17.547Z,14.5
2015-07-31T01:30:36.016Z,14.5
2015-07-31T01:30:54.641Z,14.4
2015-07-31T01:31:13.159Z,14.4
2015-07-31T01:31:31.769Z,14.3
2015-07-31T01:31:50.316Z,14.3
2015-07-31T01:32:08.831Z,14.4
2015-07-31T01:32:27.473Z,14.4
2015-07-31T01:32:45.988Z,14.3
2015-07-31T01:33:04.551Z,14.3
2015-07-31T01:33:23.273Z,14.3
2015-07-31T01:33:42.023Z,14.3
2015-07-31T01:34:00.523Z,14.2
2015-07-31T01:34:19.632Z,14.2
2015-07-31T01:34:38.040Z,14.1
2015-07-31T01:34:56.415Z,14.2
2015-07-31T01:35:14.931Z,14.2
2015-07-31T01:35:33.620Z,14.1
2015-07-31T01:35:52.120Z,14.1
2015-07-31T01:36:10.870Z,14.1
2015-07-31T01:36:29.261Z,14.1
2015-07-31T01:36:47.951Z,14.1
2015-07-31T01:37:06.388Z,14.1
2015-07-31T01:37:25.169Z,14.1
2015-07-31T01:37:43.749Z,14.1
2015-07-31T01:38:02.312Z,14
2015-07-31T01:38:20.828Z,14
2015-07-31T01:38:39.359Z,14
2015-07-31T01:38:58.048Z,14
2015-07-31T01:39:16.533Z,14
2015-07-31T01:39:35.033Z,14
2015-07-31T01:39:53.519Z,14.1
2015-07-31T01:40:12.332Z,14.1
2015-07-31T01:40:31.035Z,14.1
2015-07-31T01:40:49.675Z,14.2
2015-07-31T01:41:08.225Z,14.3
2015-07-31T01:41:26.897Z,14.3
2015-07-31T01:41:45.475Z,14.2
2015-07-31T01:42:03.945Z,14.2
2015-07-31T01:42:22.554Z,14.2
2015-07-31T01:42:41.211Z,14.1
2015-07-31T01:42:59.961Z,14.1
2015-07-31T01:43:18.338Z,14.1
2015-07-31T01:43:36.713Z,14.1
2015-07-31T01:43:55.166Z,14.1
2015-07-31T01:44:13.559Z,14.1
2015-07-31T01:44:32.106Z,14.1
2015-07-31T01:44:50.700Z,14.1
2015-07-31T01:45:09.169Z,14.1
2015-07-31T01:45:27.608Z,14
2015-07-31T01:45:46.186Z,14
2015-07-31T01:46:04.593Z,14
2015-07-31T01:46:23.109Z,14
2015-07-31T01:46:41.672Z,14
2015-07-31T01:47:00.156Z,14
2015-07-31T01:47:18.000Z,14
2015-07-31T01:47:36.502Z,14
2015-07-31T01:47:55.033Z,13.9
2015-07-31T01:48:13.549Z,13.9
2015-07-31T01:48:32.207Z,14
2015-07-31T01:48:50.801Z,13.9
2015-07-31T01:49:09.410Z,13.9
2015-07-31T01:49:27.988Z,13.8
2015-07-31T01:49:46.663Z,13.8
2015-07-31T01:50:05.163Z,13.7
2015-07-31T01:50:23.694Z,13.8
2015-07-31T01:50:42.243Z,13.8
2015-07-31T01:51:00.821Z,13.8
2015-07-31T01:51:19.634Z,13.8
2015-07-31T01:51:38.071Z,13.9
2015-07-31T01:51:55.870Z,13.9
2015-07-31T01:52:14.339Z,13.8
2015-07-31T01:52:32.964Z,13.8
2015-07-31T01:52:51.528Z,13.8
2015-07-31T01:53:10.122Z,13.9
2015-07-31T01:53:28.825Z,13.9
2015-07-31T01:53:46.685Z,13.9
2015-07-31T01:54:05.280Z,14
2015-07-31T01:54:24.077Z,14
2015-07-31T01:54:42.499Z,14
2015-07-31T01:55:00.876Z,14
2015-07-31T01:55:19.517Z,14
2015-07-31T01:55:38.189Z,14.1
2015-07-31T01:55:56.736Z,14.2
2015-07-31T01:56:15.113Z,14.1
2015-07-31T01:56:33.753Z,14.1
2015-07-31T01:56:52.144Z,14.1
2015-07-31T01:57:10.630Z,14
2015-07-31T01:57:29.130Z,14
2015-07-31T01:57:47.755Z,13.9
2015-07-31T01:58:06.224Z,13.9
2015-07-31T01:58:24.617Z,13.9
2015-07-31T01:58:43.054Z,13.9
2015-07-31T01:59:01.570Z,13.9
2015-07-31T01:59:20.166Z,13.8
2015-07-31T01:59:38.698Z,13.9
2015-07-31T01:59:57.401Z,13.9
2015-07-31T02:00:15.838Z,13.9
2015-07-31T02:00:34.215Z,13.9
2015-07-31T02:00:52.653Z,13.9
2015-07-31T02:01:11.075Z,13.9
2015-07-31T02:01:29.686Z,13.9
2015-07-31T02:01:48.139Z,13.9
2015-07-31T02:02:06.749Z,13.9
2015-07-31T02:02:25.124Z,14
2015-07-31T02:02:43.516Z,14
2015-07-31T02:03:01.907Z,14
2015-07-31T02:03:20.391Z,14.1
2015-07-31T02:03:38.815Z,14
2015-07-31T02:03:57.518Z,14
2015-07-31T02:04:16.221Z,13.9
2015-07-31T02:04:34.690Z,13.9
2015-07-31T02:04:53.285Z,13.9
2015-07-31T02:05:11.925Z,13.9
2015-07-31T02:05:30.535Z,13.9
2015-07-31T02:05:49.132Z,13.8
2015-07-31T02:06:07.710Z,13.8
2015-07-31T02:06:26.085Z,13.8
2015-07-31T02:06:44.600Z,13.8
2015-07-31T02:07:03.024Z,13.9
2015-07-31T02:07:21.540Z,13.9
2015-07-31T02:07:40.337Z,13.9
2015-07-31T02:07:58.073Z,13.8
2015-07-31T02:08:16.620Z,13.7
2015-07-31T02:08:35.182Z,13.7
2015-07-31T02:08:53.667Z,13.7
2015-07-31T02:09:12.419Z,13.7
2015-07-31T02:09:31.028Z,13.6
2015-07-31T02:09:49.684Z,13.6
2015-07-31T02:10:08.141Z,13.6
2015-07-31T02:10:26.578Z,13.7
2015-07-31T02:10:45.016Z,13.6
2015-07-31T02:11:03.422Z,13.6
2015-07-31T02:11:21.970Z,13.7
2015-07-31T02:11:40.376Z,13.7
2015-07-31T02:11:58.876Z,13.7
2015-07-31T02:12:17.378Z,13.8
2015-07-31T02:12:35.894Z,13.7
2015-07-31T02:12:54.472Z,13.7
2015-07-31T02:13:13.128Z,13.7
2015-07-31T02:13:31.506Z,13.6
2015-07-31T02:13:50.053Z,13.6
2015-07-31T02:14:08.490Z,13.6
2015-07-31T02:14:27.024Z,13.6
2015-07-31T02:14:45.539Z,13.6
2015-07-31T02:15:03.992Z,13.6
2015-07-31T02:15:22.680Z,13.6
2015-07-31T02:15:41.071Z,13.5
2015-07-31T02:15:59.509Z,13.5
2015-07-31T02:16:18.165Z,13.6
2015-07-31T02:16:36.606Z,13.6
2015-07-31T02:16:55.168Z,13.5
2015-07-31T02:17:13.778Z,13.5
2015-07-31T02:17:32.403Z,13.5
2015-07-31T02:17:50.842Z,13.5
2015-07-31T02:18:09.530Z,13.6
2015-07-31T02:18:28.030Z,13.5
2015-07-31T02:18:46.500Z,13.5
2015-07-31T02:19:05.016Z,13.6
2015-07-31T02:19:23.703Z,13.6
2015-07-31T02:19:42.110Z,13.6
2015-07-31T02:20:00.549Z,13.6
2015-07-31T02:20:19.034Z,13.5
2015-07-31T02:20:37.534Z,13.4
2015-07-31T02:20:55.911Z,13.4
2015-07-31T02:21:14.426Z,13.3
2015-07-31T02:21:32.832Z,13.3
2015-07-31T02:21:51.223Z,13.3
2015-07-31T02:22:09.725Z,13.2
2015-07-31T02:22:28.334Z,13.2
2015-07-31T02:22:46.788Z,13.3
2015-07-31T02:23:05.244Z,13.3
2015-07-31T02:23:23.712Z,13.4
2015-07-31T02:23:42.150Z,13.4
2015-07-31T02:24:00.634Z,13.4
2015-07-31T02:24:19.121Z,13.5
2015-07-31T02:24:37.621Z,13.4
2015-07-31T02:24:56.058Z,13.4
2015-07-31T02:25:14.528Z,13.4
2015-07-31T02:25:32.981Z,13.4
2015-07-31T02:25:51.215Z,13.5
2015-07-31T02:26:09.684Z,13.4
2015-07-31T02:26:28.187Z,13.4
2015-07-31T02:26:46.687Z,13.3
2015-07-31T02:27:05.047Z,13.3
2015-07-31T02:27:23.610Z,13.3
2015-07-31T02:27:42.063Z,13.3
2015-07-31T02:28:00.719Z,13.3
2015-07-31T02:28:19.110Z,13.2
2015-07-31T02:28:37.706Z,13.2
2015-07-31T02:28:56.143Z,13.2
2015-07-31T02:29:14.675Z,13.2
2015-07-31T02:29:33.256Z,13.2
2015-07-31T02:29:51.834Z,13.3
2015-07-31T02:30:10.256Z,13.2
2015-07-31T02:30:28.724Z,13.2
2015-07-31T02:30:47.117Z,13.1
2015-07-31T02:31:05.789Z,13.1
2015-07-31T02:31:24.336Z,13.1
2015-07-31T02:31:42.165Z,13.1
2015-07-31T02:32:00.790Z,13.1
2015-07-31T02:32:19.196Z,13.1
2015-07-31T02:32:37.712Z,13.1
2015-07-31T02:32:56.354Z,13.1
2015-07-31T02:33:14.901Z,13.1
2015-07-31T02:33:33.323Z,13.1
2015-07-31T02:33:51.873Z,13.1
2015-07-31T02:34:10.326Z,13.1
2015-07-31T02:34:28.717Z,13.2
2015-07-31T02:34:47.123Z,13.3
2015-07-31T02:35:05.547Z,13.3
2015-07-31T02:35:24.016Z,13.4
2015-07-31T02:35:42.594Z,13.4
2015-07-31T02:36:01.190Z,13.4
2015-07-31T02:36:19.596Z,13.4
2015-07-31T02:36:38.096Z,13.4
2015-07-31T02:36:56.533Z,13.3
2015-07-31T02:37:14.910Z,13.3
2015-07-31T02:37:33.473Z,13.3
2015-07-31T02:37:52.270Z,13.3
2015-07-31T02:38:10.898Z,13.3
2015-07-31T02:38:29.491Z,13.3
2015-07-31T02:38:47.929Z,13.4
2015-07-31T02:39:06.804Z,13.3
2015-07-31T02:39:25.211Z,13.3
2015-07-31T02:39:43.649Z,13.3
2015-07-31T02:40:02.102Z,13.4
2015-07-31T02:40:20.635Z,13.4
2015-07-31T02:40:39.182Z,13.4
2015-07-31T02:40:57.588Z,13.4
2015-07-31T02:41:16.229Z,13.4
2015-07-31T02:41:34.684Z,13.5
2015-07-31T02:41:53.200Z,13.5
2015-07-31T02:42:11.653Z,13.5
2015-07-31T02:42:30.156Z,13.4
2015-07-31T02:42:48.921Z,13.3
2015-07-31T02:43:07.640Z,13.4
2015-07-31T02:43:26.046Z,13.4
2015-07-31T02:43:44.672Z,13.4
2015-07-31T02:44:03.250Z,13.4
2015-07-31T02:44:21.641Z,13.4
2015-07-31T02:44:40.174Z,13.5
2015-07-31T02:44:58.565Z,13.5
2015-07-31T02:45:16.940Z,13.5
2015-07-31T02:45:35.346Z,13.5
2015-07-31T02:45:53.959Z,13.4
2015-07-31T02:46:12.396Z,13.3
2015-07-31T02:46:30.865Z,13.3
2015-07-31T02:46:49.444Z,13.3
2015-07-31T02:47:07.866Z,13.3
2015-07-31T02:47:26.350Z,13.3
2015-07-31T02:47:44.710Z,13.3
2015-07-31T02:48:03.102Z,13.3
2015-07-31T02:48:21.571Z,13.3
2015-07-31T02:48:39.993Z,13.3
2015-07-31T02:48:58.386Z,13.3
2015-07-31T02:49:16.855Z,13.3
2015-07-31T02:49:35.449Z,13.4
2015-07-31T02:49:54.011Z,13.4
2015-07-31T02:50:12.732Z,13.5
2015-07-31T02:50:31.388Z,13.4
2015-07-31T02:50:50.123Z,13.4
2015-07-31T02:51:08.531Z,13.4
2015-07-31T02:51:26.953Z,13.4
2015-07-31T02:51:45.328Z,13.5
2015-07-31T02:52:03.844Z,13.4
2015-07-31T02:52:22.221Z,13.4
2015-07-31T02:52:40.830Z,13.4
2015-07-31T02:52:59.377Z,13.4
2015-07-31T02:53:17.941Z,13.3
2015-07-31T02:53:36.348Z,13.3
2015-07-31T02:53:54.723Z,13.3
2015-07-31T02:54:13.176Z,13.4
2015-07-31T02:54:31.756Z,13.4
2015-07-31T02:54:50.287Z,13.4
2015-07-31T02:55:08.771Z,13.4
2015-07-31T02:55:27.148Z,13.4
2015-07-31T02:55:45.758Z,13.4
2015-07-31T02:56:04.461Z,13.4
2015-07-31T02:56:22.930Z,13.4
2015-07-31T02:56:40.964Z,13.4
2015-07-31T02:56:59.167Z,13.4
2015-07-31T02:57:17.636Z,13.5
2015-07-31T02:57:36.107Z,13.5
2015-07-31T02:57:54.497Z,13.5
2015-07-31T02:58:12.872Z,13.5
2015-07-31T02:58:31.388Z,13.5
2015-07-31T02:58:50.046Z,13.5
2015-07-31T02:59:08.593Z,13.4
2015-07-31T02:59:27.218Z,13.4
2015-07-31T02:59:45.625Z,13.5
2015-07-31T03:00:04.031Z,13.6
2015-07-31T03:00:22.453Z,13.5
2015-07-31T03:00:40.891Z,13.6
2015-07-31T03:00:59.268Z,13.6
2015-07-31T03:01:17.783Z,13.6
2015-07-31T03:01:36.221Z,13.6
2015-07-31T03:01:54.646Z,13.7
2015-07-31T03:02:13.083Z,13.7
2015-07-31T03:02:31.693Z,13.7
2015-07-31T03:02:50.099Z,13.7
2015-07-31T03:03:08.585Z,13.6
2015-07-31T03:03:27.320Z,13.5
2015-07-31T03:03:46.195Z,13.5
2015-07-31T03:04:04.603Z,13.5
2015-07-31T03:04:23.072Z,13.5
2015-07-31T03:04:41.681Z,13.5
2015-07-31T03:05:00.119Z,13.6
2015-07-31T03:05:18.621Z,13.5
2015-07-31T03:05:37.339Z,13.5
2015-07-31T03:05:56.136Z,13.6
2015-07-31T03:06:14.560Z,13.5
2015-07-31T03:06:33.357Z,13.5
2015-07-31T03:06:51.810Z,13.5
2015-07-31T03:07:10.435Z,13.5
2015-07-31T03:07:28.889Z,13.5
2015-07-31T03:07:47.264Z,13.6
2015-07-31T03:08:05.749Z,13.6
2015-07-31T03:08:24.267Z,13.5
2015-07-31T03:08:43.033Z,13.5
2015-07-31T03:09:01.689Z,13.5
2015-07-31T03:09:20.314Z,13.5
2015-07-31T03:09:38.910Z,13.5
2015-07-31T03:09:57.441Z,13.6
2015-07-31T03:10:16.035Z,13.6
2015-07-31T03:10:34.553Z,13.6
2015-07-31T03:10:53.007Z,13.6
2015-07-31T03:11:11.553Z,13.6
2015-07-31T03:11:29.991Z,13.5
2015-07-31T03:11:48.367Z,13.6
2015-07-31T03:12:06.992Z,13.6
2015-07-31T03:12:25.742Z,13.6
2015-07-31T03:12:44.182Z,13.6
2015-07-31T03:13:02.886Z,13.6
2015-07-31T03:13:21.526Z,13.5
2015-07-31T03:13:40.089Z,13.6
2015-07-31T03:13:58.731Z,13.6
2015-07-31T03:14:17.638Z,13.6
2015-07-31T03:14:36.200Z,13.5
2015-07-31T03:14:54.764Z,13.5
2015-07-31T03:15:13.248Z,13.6
2015-07-31T03:15:31.623Z,13.6
2015-07-31T03:15:50.142Z,13.6
2015-07-31T03:16:08.798Z,13.6
2015-07-31T03:16:27.313Z,13.7
2015-07-31T03:16:45.688Z,13.7
2015-07-31T03:17:04.080Z,13.7
2015-07-31T03:17:22.580Z,13.6
2015-07-31T03:17:41.361Z,13.6
2015-07-31T03:17:59.974Z,13.5
2015-07-31T03:18:18.599Z,13.5
2015-07-31T03:18:36.974Z,13.6
2015-07-31T03:18:55.442Z,13.6
2015-07-31T03:19:14.116Z,13.5
2015-07-31T03:19:32.554Z,13.5
2015-07-31T03:19:51.038Z,13.4
2015-07-31T03:20:09.571Z,13.4
2015-07-31T03:20:28.243Z,13.4
2015-07-31T03:20:46.759Z,13.4
2015-07-31T03:21:05.368Z,13.3
2015-07-31T03:21:23.980Z,13.3
2015-07-31T03:21:42.464Z,13.3
2015-07-31T03:22:00.917Z,13.4
2015-07-31T03:22:19.357Z,13.4
2015-07-31T03:22:38.091Z,13.4
2015-07-31T03:22:56.669Z,13.5
2015-07-31T03:23:15.247Z,13.5
2015-07-31T03:23:33.656Z,13.5
2015-07-31T03:23:52.062Z,13.5
2015-07-31T03:24:10.734Z,13.6
2015-07-31T03:24:29.158Z,13.5
2015-07-31T03:24:47.845Z,13.5
2015-07-31T03:25:06.423Z,13.5
2015-07-31T03:25:24.970Z,13.4
2015-07-31T03:25:43.550Z,13.5
2015-07-31T03:26:01.988Z,13.5
2015-07-31T03:26:20.488Z,13.4
2015-07-31T03:26:38.880Z,13.4
2015-07-31T03:26:57.708Z,13.3
2015-07-31T03:27:16.177Z,13.3
2015-07-31T03:27:34.693Z,13.3
2015-07-31T03:27:53.179Z,13.3
2015-07-31T03:28:11.851Z,13.2
2015-07-31T03:28:30.242Z,13.2
2015-07-31T03:28:48.775Z,13.3
2015-07-31T03:29:07.369Z,13.3
2015-07-31T03:29:25.978Z,13.3
2015-07-31T03:29:44.634Z,13.3
2015-07-31T03:30:03.261Z,13.3
2015-07-31T03:30:21.980Z,13.4
2015-07-31T03:30:40.543Z,13.3
2015-07-31T03:30:58.921Z,13.4
2015-07-31T03:31:17.389Z,13.4
2015-07-31T03:31:36.014Z,13.3
2015-07-31T03:31:54.592Z,13.4
2015-07-31T03:32:13.328Z,13.4
2015-07-31T03:32:31.875Z,13.4
2015-07-31T03:32:50.422Z,13.4
2015-07-31T03:33:09.065Z,13.4
2015-07-31T03:33:27.550Z,13.4
2015-07-31T03:33:46.128Z,13.4
2015-07-31T03:34:04.784Z,13.5
2015-07-31T03:34:23.535Z,13.5
2015-07-31T03:34:42.129Z,13.4
2015-07-31T03:35:00.551Z,13.3
2015-07-31T03:35:19.288Z,13.3
2015-07-31T03:35:37.913Z,13.4
2015-07-31T03:35:56.304Z,13.4
2015-07-31T03:36:14.991Z,13.3
2015-07-31T03:36:33.509Z,13.3
2015-07-31T03:36:52.071Z,13.2
2015-07-31T03:37:10.774Z,13.2
2015-07-31T03:37:29.214Z,13.2
2015-07-31T03:37:47.479Z,13.1
2015-07-31T03:38:05.933Z,13.2
2015-07-31T03:38:24.558Z,13.2
2015-07-31T03:38:43.013Z,13.2
2015-07-31T03:39:01.513Z,13.2
2015-07-31T03:39:19.966Z,13.2
2015-07-31T03:39:38.625Z,13.1
2015-07-31T03:39:57.219Z,13.2
2015-07-31T03:40:15.688Z,13.2
2015-07-31T03:40:34.516Z,13.2
2015-07-31T03:40:52.970Z,13.2
2015-07-31T03:41:11.501Z,13.2
2015-07-31T03:41:30.360Z,13.2
2015-07-31T03:41:48.862Z,13.2
2015-07-31T03:42:07.550Z,13.2
2015-07-31T03:42:25.987Z,13.3
2015-07-31T03:42:44.628Z,13.3
2015-07-31T03:43:03.021Z,13.4
2015-07-31T03:43:21.489Z,13.4
2015-07-31T03:43:39.864Z,13.4
2015-07-31T03:43:58.633Z,13.4
2015-07-31T03:44:17.055Z,13.4
2015-07-31T03:44:35.477Z,13.3
2015-07-31T03:44:53.867Z,13.3
2015-07-31T03:45:12.525Z,13.3
2015-07-31T03:45:30.962Z,13.3
2015-07-31T03:45:49.431Z,13.3
2015-07-31T03:46:07.995Z,13.2
2015-07-31T03:46:26.667Z,13.2
2015-07-31T03:46:45.152Z,13.2
2015-07-31T03:47:03.605Z,13.2
2015-07-31T03:47:22.185Z,13.2
2015-07-31T03:47:40.560Z,13.3
2015-07-31T03:47:58.951Z,13.2
2015-07-31T03:48:17.468Z,13.2
2015-07-31T03:48:35.999Z,13.1
2015-07-31T03:48:54.624Z,13.1
2015-07-31T03:49:13.140Z,13.1
2015-07-31T03:49:31.534Z,13.2
2015-07-31T03:49:50.190Z,13.2
2015-07-31T03:50:08.659Z,13.2
2015-07-31T03:50:27.192Z,13.3
2015-07-31T03:50:45.817Z,13.3
2015-07-31T03:51:04.426Z,13.3
2015-07-31T03:51:22.801Z,13.3
2015-07-31T03:51:41.194Z,13.3
2015-07-31T03:51:59.631Z,13.3
2015-07-31T03:52:18.335Z,13.3
2015-07-31T03:52:36.712Z,13.2
2015-07-31T03:52:55.321Z,13.2
2015-07-31T03:53:13.727Z,13.2
2015-07-31T03:53:32.212Z,13.2
2015-07-31T03:53:50.557Z,13.2
2015-07-31T03:54:09.182Z,13.2
2015-07-31T03:54:27.448Z,13.2
2015-07-31T03:54:46.045Z,13.2
2015-07-31T03:55:03.748Z,13.2
2015-07-31T03:55:21.810Z,13.2
2015-07-31T03:55:40.060Z,13.1
2015-07-31T03:55:58.843Z,13.1
2015-07-31T03:56:17.311Z,13.1
2015-07-31T03:56:35.618Z,13.1
2015-07-31T03:56:54.027Z,13.1
2015-07-31T03:57:14.246Z,13.2
2015-07-31T03:57:32.949Z,13.2
2015-07-31T03:57:51.340Z,13.3
2015-07-31T03:58:09.841Z,13.4
2015-07-31T03:58:28.231Z,13.3
2015-07-31T03:58:46.638Z,13.3
2015-07-31T03:59:04.734Z,13.3
2015-07-31T03:59:22.594Z,13.3
2015-07-31T03:59:40.609Z,13.3
2015-07-31T03:59:58.672Z,13.2
2015-07-31T04:00:16.876Z,13.2
2015-07-31T04:00:35.157Z,13.2
2015-07-31T04:00:53.204Z,13.2
2015-07-31T04:01:11.050Z,13.2
2015-07-31T04:01:29.675Z,13.1
2015-07-31T04:01:47.987Z,13.1
2015-07-31T04:02:06.175Z,13.1
2015-07-31T04:02:24.833Z,13.1
2015-07-31T04:02:43.114Z,13.1
2015-07-31T04:03:01.817Z,13.1
2015-07-31T04:03:19.852Z,13
2015-07-31T04:03:37.805Z,13.1
2015-07-31T04:03:55.727Z,13.1
2015-07-31T04:04:13.508Z,13.1
2015-07-31T04:04:31.369Z,13.1
2015-07-31T04:04:49.401Z,13.1
2015-07-31T04:05:07.151Z,13.1
2015-07-31T04:05:25.278Z,13.2
2015-07-31T04:05:43.246Z,13.2
2015-07-31T04:06:01.199Z,13.2
2015-07-31T04:06:19.231Z,13.3
2015-07-31T04:06:37.061Z,13.3
2015-07-31T04:06:55.014Z,13.2
2015-07-31T04:07:12.873Z,13.2
2015-07-31T04:07:30.728Z,13.2